Time;durP1;ratioP1;P1;durP2;ratioP2;P2;SDS_P1;SDS_P2;PMS_P1;PMS_P2;Temp;Humidity;BMP_temperature;BMP_pressure;BME280_temperature;BME280_humidity;BME280_pressure;Samples;Min_cycle;Max_cycle;Signal;HPM_P1;HPM_P2
2024/01/20 00:01:52;;;;;;;;;16.75;13.50;;;;;2.49;63.23;101062.50;5118492;27;45517;-69
2024/01/20 00:04:18;;;;;;;;;20.00;18.50;;;;;2.37;63.27;101059.06;5118603;27;45450;-69
2024/01/20 00:06:44;;;;;;;;;20.25;17.50;;;;;2.22;63.99;101058.84;5119031;27;45311;-69
2024/01/20 00:09:10;;;;;;;;;21.00;18.00;;;;;2.20;64.29;101063.00;5118536;27;45514;-69
2024/01/20 00:11:35;;;;;;;;;18.25;18.25;;;;;2.14;63.82;101067.72;5118581;27;45356;-69
2024/01/20 00:14:01;;;;;;;;;16.50;14.00;;;;;1.97;63.38;101027.88;5118819;27;45253;-69
2024/01/20 00:16:26;;;;;;;;;19.75;19.00;;;;;2.16;63.01;101058.41;5119144;27;45296;-70
2024/01/20 00:18:52;;;;;;;;;16.50;15.00;;;;;2.13;64.19;101064.25;5118545;27;45495;-70
2024/01/20 00:21:18;;;;;;;;;19.50;18.00;;;;;2.13;63.71;101061.69;5118537;27;45477;-70
2024/01/20 00:23:43;;;;;;;;;18.25;16.50;;;;;2.08;64.11;101055.28;5118429;27;46242;-70
2024/01/20 00:26:09;;;;;;;;;30.00;27.00;;;;;2.08;64.18;101059.56;5118639;27;45549;-69
2024/01/20 00:28:34;;;;;;;;;17.75;15.25;;;;;1.93;63.81;101043.84;5118243;27;45937;-68
2024/01/20 00:31:00;;;;;;;;;20.00;19.00;;;;;2.15;63.41;101077.25;5117741;27;45457;-69
2024/01/20 00:33:25;;;;;;;;;22.50;17.00;;;;;2.10;63.78;101069.19;5118042;27;45334;-69
2024/01/20 00:35:51;;;;;;;;;14.75;14.50;;;;;2.11;64.39;101077.78;5117619;27;45414;-69
2024/01/20 00:38:17;;;;;;;;;18.25;16.00;;;;;2.05;63.98;101085.09;5117660;27;45474;-69
2024/01/20 00:40:42;;;;;;;;;25.25;23.50;;;;;2.02;64.35;101075.47;5121314;27;45462;-70
2024/01/20 00:43:08;;;;;;;;;43.25;38.25;;;;;2.05;63.66;101082.50;5121740;27;45464;-70
2024/01/20 00:45:34;;;;;;;;;25.50;20.00;;;;;2.06;64.07;101081.75;5120472;27;45632;-70
2024/01/20 00:47:59;;;;;;;;;22.75;20.00;;;;;2.06;63.68;101087.78;5121566;27;45949;-69
2024/01/20 00:50:25;;;;;;;;;29.00;26.25;;;;;2.05;64.10;101088.59;5121219;27;45316;-70
2024/01/20 00:52:51;;;;;;;;;20.00;16.25;;;;;2.07;64.39;101091.25;5121881;27;45504;-70
2024/01/20 00:55:17;;;;;;;;;22.75;21.50;;;;;2.05;64.24;101086.00;5122112;27;45458;-70
2024/01/20 00:57:44;;;;;;;;;24.75;16.75;;;;;2.04;63.88;101089.34;5121732;27;46138;-70
2024/01/20 01:00:10;;;;;;;;;22.50;21.00;;;;;2.05;64.01;101091.16;5121786;27;45215;-69
2024/01/20 01:02:38;;;;;;;;;18.25;17.75;;;;;2.01;64.24;101095.97;5121745;27;45474;-69
2024/01/20 01:05:05;;;;;;;;;19.50;16.75;;;;;1.73;64.38;101063.94;5121996;27;45479;-69
2024/01/20 01:07:32;;;;;;;;;17.50;16.25;;;;;1.85;64.87;101096.50;5121726;27;46167;-70
2024/01/20 01:09:58;;;;;;;;;14.00;12.00;;;;;1.77;64.96;101107.16;5121495;27;45506;-70
2024/01/20 01:12:24;;;;;;;;;17.75;13.25;;;;;1.79;64.86;101115.91;5121818;27;45560;-70
2024/01/20 01:14:50;;;;;;;;;13.00;10.50;;;;;1.80;65.13;101121.94;5121798;27;45311;-69
2024/01/20 01:17:18;;;;;;;;;13.75;11.00;;;;;1.78;64.56;101121.81;5121365;27;45884;-71
2024/01/20 01:19:45;;;;;;;;;15.25;13.00;;;;;1.75;65.54;101129.34;5121518;27;46105;-70
2024/01/20 01:22:10;;;;;;;;;14.50;13.00;;;;;1.73;64.91;101130.91;5121434;27;45290;-70
2024/01/20 01:24:37;;;;;;;;;14.00;11.50;;;;;1.74;65.31;101134.38;5121522;27;45363;-70
2024/01/20 01:27:04;;;;;;;;;14.25;13.50;;;;;1.72;64.82;101134.25;5121644;27;45352;-70
2024/01/20 01:29:29;;;;;;;;;11.50;10.25;;;;;1.74;64.51;101137.84;5121316;27;45258;-69
2024/01/20 01:31:55;;;;;;;;;17.25;14.25;;;;;1.74;64.75;101148.13;5121309;27;45426;-69
2024/01/20 01:34:21;;;;;;;;;13.75;13.00;;;;;1.76;64.80;101150.84;5121352;27;45210;-69
2024/01/20 01:36:46;;;;;;;;;13.00;12.25;;;;;1.76;64.51;101150.84;5120901;27;45256;-69
2024/01/20 01:39:12;;;;;;;;;15.75;14.50;;;;;1.78;64.35;101150.16;5120844;27;45488;-69
2024/01/20 01:41:38;;;;;;;;;15.50;14.00;;;;;1.78;64.50;101159.56;5121013;27;45298;-69
2024/01/20 01:44:03;;;;;;;;;9.75;8.50;;;;;1.78;64.48;101168.19;5121448;27;45337;-69
2024/01/20 01:46:30;;;;;;;;;13.00;13.00;;;;;1.35;65.11;101098.03;5120862;27;45971;-69
2024/01/20 01:48:56;;;;;;;;;21.50;17.25;;;;;1.68;65.01;101168.28;5120893;27;45319;-69
2024/01/20 01:51:22;;;;;;;;;16.50;16.00;;;;;1.66;65.33;101174.13;5120621;27;45538;-69
2024/01/20 01:53:49;;;;;;;;;15.75;14.00;;;;;1.64;64.89;101181.72;5119725;27;45333;-69
2024/01/20 01:56:14;;;;;;;;;14.25;13.50;;;;;1.63;65.02;101181.59;5120797;27;45301;-69
2024/01/20 01:58:43;;;;;;;;;25.00;19.75;;;;;1.59;65.08;101186.53;5120632;27;45340;-69
2024/01/20 02:01:08;;;;;;;;;23.25;22.25;;;;;1.43;64.80;101149.19;5119439;27;45318;-69
2024/01/20 02:03:34;;;;;;;;;22.00;19.00;;;;;1.63;65.01;101182.47;5121117;27;45258;-69
2024/01/20 02:06:00;;;;;;;;;18.00;14.50;;;;;1.50;64.89;101165.22;5120486;27;45355;-69
2024/01/20 02:08:27;;;;;;;;;11.75;8.00;;;;;1.62;64.68;101188.44;5120336;27;45457;-69
2024/01/20 02:10:53;;;;;;;;;17.50;15.50;;;;;1.60;65.06;101192.56;5120673;27;45478;-69
2024/01/20 02:13:20;;;;;;;;;13.50;13.50;;;;;1.56;65.14;101193.13;5120759;27;45545;-69
2024/01/20 02:15:46;;;;;;;;;14.25;13.50;;;;;1.41;64.74;101167.09;5120372;27;46109;-69
2024/01/20 02:18:12;;;;;;;;;12.50;12.00;;;;;1.58;65.25;101196.72;5120499;27;45482;-69
2024/01/20 02:20:37;;;;;;;;;14.25;13.00;;;;;1.59;65.23;101201.97;5120840;27;45404;-70
2024/01/20 02:23:03;;;;;;;;;10.25;8.50;;;;;1.56;64.50;101200.84;5120785;27;45354;-70
2024/01/20 02:25:29;;;;;;;;;15.25;13.75;;;;;1.61;65.08;101214.06;5120241;27;45987;-70
2024/01/20 02:27:54;;;;;;;;;12.75;11.75;;;;;1.58;65.13;101212.16;5120246;27;45420;-70
2024/01/20 02:30:20;;;;;;;;;12.25;11.25;;;;;1.56;64.88;101218.88;5120447;27;45232;-69
2024/01/20 02:32:46;;;;;;;;;13.75;13.00;;;;;1.52;64.45;101220.31;5120477;27;45397;-69
2024/01/20 02:35:12;;;;;;;;;10.50;10.00;;;;;1.46;64.47;101221.53;5120132;27;45881;-69
2024/01/20 02:37:38;;;;;;;;;15.75;12.75;;;;;0.55;64.62;101071.31;5120374;27;45230;-69
2024/01/20 02:40:04;;;;;;;;;15.50;13.75;;;;;1.23;65.23;101214.56;5120255;27;45540;-69
2024/01/20 02:42:29;;;;;;;;;13.25;12.25;;;;;1.21;64.96;101224.75;5120452;27;45341;-69
2024/01/20 02:44:55;;;;;;;;;11.50;8.25;;;;;1.15;65.70;101229.41;5119843;27;45481;-70
2024/01/20 02:47:20;;;;;;;;;13.25;13.25;;;;;1.05;65.64;101216.59;5119980;27;45447;-69
2024/01/20 02:49:46;;;;;;;;;15.00;14.25;;;;;1.12;65.85;101234.34;5120112;27;45513;-69
2024/01/20 02:52:12;;;;;;;;;13.00;12.00;;;;;1.13;65.50;101243.84;5119984;27;45589;-70
2024/01/20 02:54:37;;;;;;;;;17.50;15.75;;;;;1.13;65.26;101241.25;5120100;27;45358;-70
2024/01/20 02:57:03;;;;;;;;;15.50;14.75;;;;;1.14;65.26;101249.13;5119879;27;45391;-69
2024/01/20 02:59:29;;;;;;;;;10.50;9.25;;;;;1.10;65.55;101251.34;5119928;27;45521;-69
2024/01/20 03:01:54;;;;;;;;;11.50;10.00;;;;;1.10;65.15;101246.19;5118975;27;45554;-69
2024/01/20 03:04:20;;;;;;;;;15.25;13.50;;;;;1.03;66.16;101242.22;5119457;27;45336;-70
2024/01/20 03:06:46;;;;;;;;;16.50;12.00;;;;;1.10;65.70;101251.34;5119407;27;45493;-69
2024/01/20 03:09:14;;;;;;;;;14.50;12.25;;;;;1.11;65.66;101243.72;5119670;27;45304;-69
2024/01/20 03:11:43;;;;;;;;;12.75;12.50;;;;;1.11;65.87;101248.84;5120227;27;45302;-69
2024/01/20 03:14:09;;;;;;;;;10.00;10.00;;;;;1.12;65.25;101245.53;5119723;27;45490;-69
2024/01/20 03:16:35;;;;;;;;;11.25;9.75;;;;;1.12;65.69;101242.94;5119437;27;45458;-69
2024/01/20 03:19:01;;;;;;;;;13.25;12.25;;;;;1.13;65.94;101254.13;5119481;27;45503;-69
2024/01/20 03:21:26;;;;;;;;;13.25;11.25;;;;;1.13;65.40;101251.56;5119620;27;45475;-69
2024/01/20 03:23:53;;;;;;;;;12.75;12.75;;;;;1.09;65.51;101252.09;5119293;27;45975;-69
2024/01/20 03:26:20;;;;;;;;;13.75;12.50;;;;;0.82;65.63;101213.13;5119390;27;45382;-69
2024/01/20 03:28:45;;;;;;;;;13.00;12.25;;;;;0.98;65.37;101239.28;5119385;27;45317;-69
2024/01/20 03:31:11;;;;;;;;;9.50;9.50;;;;;1.08;65.32;101263.19;5119844;27;45514;-69
2024/01/20 03:33:37;;;;;;;;;10.00;9.00;;;;;1.08;65.62;101258.03;5119576;27;46000;-69
2024/01/20 03:36:03;;;;;;;;;15.25;12.75;;;;;1.06;65.68;101255.34;5119175;27;45521;-69
2024/01/20 03:38:29;;;;;;;;;15.00;10.25;;;;;1.03;65.58;101255.06;5119346;27;45326;-70
2024/01/20 03:40:54;;;;;;;;;17.00;12.50;;;;;0.85;65.39;101222.75;5119446;27;45322;-70
2024/01/20 03:43:20;;;;;;;;;12.25;12.00;;;;;1.04;65.85;101263.72;5118963;27;45493;-70
2024/01/20 03:45:46;;;;;;;;;11.00;10.00;;;;;1.00;65.59;101265.13;5119285;27;46045;-70
2024/01/20 03:48:12;;;;;;;;;12.50;12.00;;;;;0.82;65.39;101228.56;5119609;27;45243;-70
2024/01/20 03:50:38;;;;;;;;;15.00;12.75;;;;;0.93;65.52;101256.00;5119225;27;45346;-71
2024/01/20 03:53:05;;;;;;;;;15.75;13.00;;;;;0.87;65.81;101257.22;5118894;27;45330;-70
2024/01/20 03:55:31;;;;;;;;;12.50;11.50;;;;;0.85;65.72;101262.22;5118900;27;45423;-70
2024/01/20 03:57:57;;;;;;;;;12.50;10.00;;;;;0.80;66.23;101260.97;5118946;27;45248;-70
2024/01/20 04:00:23;;;;;;;;;15.50;12.75;;;;;0.56;66.17;101239.31;5119134;27;45445;-70
2024/01/20 04:02:48;;;;;;;;;12.25;12.25;;;;;0.76;65.94;101262.41;5118883;27;45985;-70
2024/01/20 04:05:14;;;;;;;;;12.75;10.25;;;;;0.75;66.12;101262.25;5118568;27;45492;-70
2024/01/20 04:07:40;;;;;;;;;15.25;13.25;;;;;0.69;66.83;101257.53;5119095;27;45490;-70
2024/01/20 04:10:06;;;;;;;;;13.75;13.00;;;;;0.67;66.52;101251.34;5118868;27;45498;-70
2024/01/20 04:12:32;;;;;;;;;13.00;12.00;;;;;0.50;66.88;101220.84;5118299;27;45308;-70
2024/01/20 04:14:57;;;;;;;;;16.00;15.00;;;;;0.69;66.38;101248.91;5118715;27;45484;-70
2024/01/20 04:17:23;;;;;;;;;12.50;12.25;;;;;0.68;66.61;101242.88;5117434;27;45495;-70
2024/01/20 04:19:49;;;;;;;;;12.75;11.25;;;;;0.70;66.67;101243.91;5118729;27;45367;-70
2024/01/20 04:22:14;;;;;;;;;23.00;21.00;;;;;0.73;66.39;101240.66;5118723;27;45991;-70
2024/01/20 04:24:40;;;;;;;;;20.25;19.50;;;;;0.76;65.95;101240.94;5119004;27;45487;-70
2024/01/20 04:27:05;;;;;;;;;20.25;16.00;;;;;0.41;66.00;101182.41;5118607;27;45186;-70
2024/01/20 04:29:31;;;;;;;;;18.00;13.00;;;;;0.64;65.71;101221.91;5118677;27;45238;-70
2024/01/20 04:31:57;;;;;;;;;13.00;10.00;;;;;0.77;66.11;101235.88;5116985;27;45501;-70
2024/01/20 04:34:23;;;;;;;;;15.00;10.00;;;;;0.69;65.84;101215.50;5118227;27;45529;-70
2024/01/20 04:36:48;;;;;;;;;14.00;12.25;;;;;0.69;66.10;101223.19;5118502;27;45462;-70
2024/01/20 04:39:14;;;;;;;;;12.50;11.00;;;;;0.51;65.99;101202.94;5118775;27;45298;-70
2024/01/20 04:41:40;;;;;;;;;15.00;13.25;;;;;0.66;65.85;101207.53;5118118;27;45927;-70
2024/01/20 04:44:05;;;;;;;;;19.50;15.50;;;;;0.31;66.25;101157.66;5118095;27;45319;-70
2024/01/20 04:46:31;;;;;;;;;12.75;12.25;;;;;0.61;66.45;101211.41;5118312;27;45789;-70
2024/01/20 04:48:57;;;;;;;;;13.50;12.50;;;;;0.42;66.52;101175.59;5118421;27;45384;-70
2024/01/20 04:51:23;;;;;;;;;7.00;6.00;;;;;0.54;66.15;101195.50;5117950;27;46332;-70
2024/01/20 04:53:49;;;;;;;;;12.75;11.50;;;;;0.50;66.79;101196.03;5118180;27;45565;-70
2024/01/20 04:56:19;;;;;;;;;16.50;12.50;;;;;0.48;66.86;101195.00;5118286;27;45330;-70
2024/01/20 04:58:45;;;;;;;;;13.00;12.00;;;;;0.49;66.76;101191.63;5118505;27;45434;-70
2024/01/20 05:01:11;;;;;;;;;10.00;9.00;;;;;0.47;67.38;101194.88;5117885;27;45446;-70
2024/01/20 05:03:36;;;;;;;;;9.25;9.25;;;;;0.48;66.29;101194.06;5117723;27;45478;-70
2024/01/20 05:06:02;;;;;;;;;14.00;11.50;;;;;0.50;66.85;101196.03;5118091;27;45437;-70
2024/01/20 05:08:28;;;;;;;;;13.25;10.00;;;;;0.50;66.38;101203.72;5118031;27;45428;-70
2024/01/20 05:10:54;;;;;;;;;14.25;12.75;;;;;0.51;66.76;101200.38;5117652;27;45984;-70
2024/01/20 05:13:19;;;;;;;;;11.00;9.25;;;;;0.53;66.66;101206.53;5117719;27;45475;-70
2024/01/20 05:15:45;;;;;;;;;11.50;10.00;;;;;0.55;66.35;101211.81;5118273;27;45369;-70
2024/01/20 05:18:10;;;;;;;;;10.00;10.00;;;;;0.53;66.62;101211.69;5117955;27;45354;-70
2024/01/20 05:20:36;;;;;;;;;13.00;11.50;;;;;0.46;66.96;101211.06;5117666;27;45425;-70
2024/01/20 05:23:02;;;;;;;;;10.00;10.00;;;;;0.42;66.98;101212.50;5117541;27;45458;-70
2024/01/20 05:25:27;;;;;;;;;10.00;10.00;;;;;0.42;66.97;101212.50;5119865;27;45268;-70
2024/01/20 05:27:53;;;;;;;;;6.50;6.50;;;;;0.44;66.58;101220.31;5121555;27;45472;-70
2024/01/20 05:30:19;;;;;;;;;12.00;12.00;;;;;0.41;67.24;101232.94;5121159;27;46135;-70
2024/01/20 05:32:45;;;;;;;;;11.00;11.00;;;;;0.41;67.02;101232.94;5121302;27;45418;-70
2024/01/20 05:35:10;;;;;;;;;12.25;11.00;;;;;0.33;67.46;101233.19;5121251;27;45356;-70
2024/01/20 05:37:36;;;;;;;;;10.50;10.50;;;;;0.33;66.70;101232.31;5121402;27;45532;-70
2024/01/20 05:40:04;;;;;;;;;10.50;10.00;;;;;0.38;66.50;101228.44;5120865;27;45456;-70
2024/01/20 05:42:30;;;;;;;;;15.50;13.00;;;;;0.40;66.79;101226.91;5120913;27;45456;-70
2024/01/20 05:44:56;;;;;;;;;13.50;11.50;;;;;0.41;66.70;101228.69;5120977;27;46125;-70
2024/01/20 05:47:21;;;;;;;;;6.25;6.00;;;;;0.42;66.58;101224.44;5121076;27;45468;-70
2024/01/20 05:49:47;;;;;;;;;11.00;6.75;;;;;0.41;66.48;101220.09;5121118;27;46008;-70
2024/01/20 05:52:12;;;;;;;;;7.00;7.00;;;;;0.41;66.78;101220.97;5120855;27;45405;-70
2024/01/20 05:54:38;;;;;;;;;7.00;6.25;;;;;0.35;66.46;101217.91;5119684;27;45419;-70
2024/01/20 05:57:04;;;;;;;;;5.75;3.50;;;;;0.41;66.58;101225.22;5121133;27;45289;-70
2024/01/20 05:59:30;;;;;;;;;9.00;7.00;;;;;0.31;66.17;101214.19;5120594;27;45261;-70
2024/01/20 06:01:55;;;;;;;;;7.00;7.00;;;;;0.39;66.51;101225.97;5120672;27;45516;-70
2024/01/20 06:04:21;;;;;;;;;8.00;8.00;;;;;0.34;66.70;101227.31;5120709;27;45513;-70
2024/01/20 06:06:49;;;;;;;;;10.00;8.75;;;;;0.40;67.07;101239.75;5121303;27;45498;-70
2024/01/20 06:09:15;;;;;;;;;6.50;6.00;;;;;0.19;66.99;101197.78;5120568;27;46098;-70
2024/01/20 06:11:41;;;;;;;;;10.50;9.50;;;;;0.34;66.62;101235.00;5120640;27;45340;-70
2024/01/20 06:14:07;;;;;;;;;10.50;9.00;;;;;0.18;66.51;101216.53;5120703;27;45504;-69
2024/01/20 06:16:36;;;;;;;;;10.00;9.00;;;;;-0.06;66.69;101187.13;5120643;27;45440;-70
2024/01/20 06:19:02;;;;;;;;;36.75;30.50;;;;;0.15;66.81;101222.31;5120549;27;45359;-70
2024/01/20 06:21:27;;;;;;;;;10.50;9.25;;;;;0.34;66.67;101250.44;5120456;27;45285;-70
2024/01/20 06:23:53;;;;;;;;;9.75;9.00;;;;;0.35;66.80;101253.88;5120466;27;45409;-70
2024/01/20 06:26:19;;;;;;;;;10.00;9.25;;;;;0.01;66.39;101196.28;5119657;27;45454;-70
2024/01/20 06:28:44;;;;;;;;;6.00;4.00;;;;;0.39;66.16;101256.81;5120086;27;45404;-70
2024/01/20 06:31:21;;;;;;;;;6.00;6.00;;;;;0.25;66.90;101241.94;5120335;27;45206;-70
2024/01/20 06:33:47;;;;;;;;;5.00;4.00;;;;;0.41;66.47;101262.09;5120432;27;45214;-70
2024/01/20 06:36:13;;;;;;;;;6.00;6.00;;;;;0.44;66.79;101270.06;5120608;27;45714;-70
2024/01/20 06:38:38;;;;;;;;;6.25;6.00;;;;;0.44;66.44;101266.59;5118633;27;46402;-70
2024/01/20 06:41:04;;;;;;;;;7.00;6.75;;;;;0.34;66.48;101252.09;5120046;27;45373;-70
2024/01/20 06:43:30;;;;;;;;;4.00;4.00;;;;;0.49;65.93;101267.88;5120036;27;45239;-70
2024/01/20 06:45:55;;;;;;;;;7.00;6.75;;;;;0.50;66.26;101274.81;5120183;27;45309;-70
2024/01/20 06:48:21;;;;;;;;;9.00;8.00;;;;;0.47;65.84;101269.41;5116118;27;45436;-68
2024/01/20 06:50:47;;;;;;;;;7.50;6.00;;;;;0.24;66.23;101231.53;5099162;27;45394;-69
2024/01/20 06:53:13;;;;;;;;;13.50;10.50;;;;;0.53;66.00;101283.66;5099313;27;45319;-68
2024/01/20 06:55:38;;;;;;;;;11.00;7.50;;;;;0.30;65.66;101253.53;5099266;27;45294;-68
2024/01/20 06:58:04;;;;;;;;;38.50;32.75;;;;;0.49;65.83;101299.59;5098728;27;46117;-68
2024/01/20 07:00:31;;;;;;;;;28.00;21.00;;;;;0.50;65.80;101309.13;5098913;27;45416;-70
2024/01/20 07:02:58;;;;;;;;;17.00;13.00;;;;;0.30;65.58;101280.88;5099351;27;45507;-69
2024/01/20 07:05:24;;;;;;;;;14.50;12.00;;;;;0.49;65.61;101319.28;5098868;27;45371;-68
2024/01/20 07:07:49;;;;;;;;;12.00;9.50;;;;;0.47;65.57;101318.25;5110838;27;46077;-69
2024/01/20 07:10:15;;;;;;;;;9.75;6.75;;;;;0.45;65.82;101320.69;5118030;27;45366;-70
2024/01/20 07:12:41;;;;;;;;;15.00;11.00;;;;;0.45;65.49;101327.53;5117265;27;45468;-68
2024/01/20 07:15:07;;;;;;;;;11.25;11.00;;;;;0.41;65.86;101335.75;5118166;27;45395;-68
2024/01/20 07:17:34;;;;;;;;;7.00;6.00;;;;;0.08;65.96;101283.31;5117806;27;45358;-68
2024/01/20 07:20:00;;;;;;;;;16.00;12.50;;;;;0.40;65.73;101340.00;5117989;27;45403;-68
2024/01/20 07:22:25;;;;;;;;;22.75;19.00;;;;;0.42;65.65;101343.59;5117503;27;45552;-69
2024/01/20 07:24:52;;;;;;;;;15.25;11.50;;;;;0.43;65.71;101339.34;5116825;27;45475;-69
2024/01/20 07:27:18;;;;;;;;;18.75;16.00;;;;;0.44;65.78;101344.63;5116257;27;46215;-68
2024/01/20 07:29:43;;;;;;;;;33.25;25.50;;;;;0.44;66.14;101344.63;5117212;27;45483;-68
2024/01/20 07:32:11;;;;;;;;;29.75;26.25;;;;;0.44;65.77;101344.63;5117446;27;45423;-69
2024/01/20 07:34:37;;;;;;;;;23.50;21.00;;;;;0.44;65.70;101351.41;5117774;27;45314;-67
2024/01/20 07:37:03;;;;;;;;;24.00;21.75;;;;;0.24;66.06;101317.25;5115832;27;46913;-68
2024/01/20 07:39:29;;;;;;;;;29.00;27.50;;;;;0.41;65.69;101358.88;5117499;27;45407;-68
2024/01/20 07:41:55;;;;;;;;;30.75;27.50;;;;;0.38;65.74;101346.69;5115901;27;46244;-70
2024/01/20 07:44:21;;;;;;;;;26.75;25.50;;;;;0.40;65.94;101352.84;5117636;27;45439;-69
2024/01/20 07:46:46;;;;;;;;;26.00;23.00;;;;;0.47;65.60;101370.56;5116943;27;45881;-69
2024/01/20 07:49:12;;;;;;;;;33.00;28.00;;;;;0.46;65.35;101366.22;5116282;27;45566;-69
2024/01/20 07:51:38;;;;;;;;;29.00;24.75;;;;;0.51;65.40;101371.72;5116802;27;45464;-69
2024/01/20 07:54:04;;;;;;;;;27.25;24.25;;;;;0.34;65.33;101353.22;5117082;27;45411;-68
2024/01/20 07:56:31;;;;;;;;;30.75;26.00;;;;;0.46;65.27;101378.13;5115046;27;45970;-69
2024/01/20 07:58:57;;;;;;;;;33.25;28.25;;;;;0.32;65.65;101341.00;5116530;27;46448;-69
2024/01/20 08:01:22;;;;;;;;;40.00;33.75;;;;;0.53;65.34;101383.94;5117652;27;45454;-68
2024/01/20 08:03:48;;;;;;;;;38.00;28.75;;;;;0.29;65.88;101339.09;5117374;27;45223;-68
2024/01/20 08:06:13;;;;;;;;;21.75;18.75;;;;;0.59;65.33;101375.81;5117430;27;45314;-68
2024/01/20 08:08:39;;;;;;;;;15.00;10.00;;;;;0.62;65.33;101376.09;5117462;27;45495;-71
2024/01/20 08:11:05;;;;;;;;;14.50;13.00;;;;;0.67;65.49;101379.03;5115845;27;45350;-68
2024/01/20 08:13:30;;;;;;;;;8.00;8.00;;;;;0.69;65.41;101383.53;5117550;27;45487;-68
2024/01/20 08:15:56;;;;;;;;;15.75;15.00;;;;;0.72;65.07;101376.09;5116923;27;45964;-68
2024/01/20 08:18:21;;;;;;;;;6.00;4.50;;;;;0.77;64.91;101387.63;5116998;27;45512;-68
2024/01/20 08:20:47;;;;;;;;;12.00;9.00;;;;;0.69;65.44;101362.06;5117172;27;45252;-68
2024/01/20 08:23:13;;;;;;;;;28.25;20.75;;;;;0.77;64.43;101384.16;5117339;27;45366;-68
2024/01/20 08:25:38;;;;;;;;;66.50;51.50;;;;;0.75;64.64;101380.56;5114697;27;45949;-70
2024/01/20 08:28:04;;;;;;;;;49.00;40.00;;;;;0.72;65.35;101382.91;5116455;27;45454;-68
2024/01/20 08:30:30;;;;;;;;;48.25;43.75;;;;;0.73;65.44;101379.53;5116597;27;45478;-68
2024/01/20 08:32:55;;;;;;;;;17.50;15.25;;;;;0.75;65.30;101386.59;5115909;27;45553;-68
2024/01/20 08:35:21;;;;;;;;;12.50;10.00;;;;;0.63;64.98;101361.56;5116565;27;45409;-68
2024/01/20 08:37:47;;;;;;;;;6.75;5.50;;;;;0.76;64.84;101384.97;5115749;27;45280;-70
2024/01/20 08:40:12;;;;;;;;;22.00;18.50;;;;;0.70;65.27;101379.31;5113885;27;45491;-68
2024/01/20 08:42:38;;;;;;;;;69.00;57.67;;;;;0.74;65.17;101387.41;5116370;27;45582;-69
2024/01/20 08:45:04;;;;;;;;;22.75;18.50;;;;;0.79;65.07;101391.22;5115427;27;46012;-69
2024/01/20 08:47:30;;;;;;;;;17.50;15.75;;;;;0.76;65.10;101401.28;5116113;27;45470;-68
2024/01/20 08:49:55;;;;;;;;;34.00;27.00;;;;;0.77;64.84;101402.16;5115853;27;45534;-69
2024/01/20 08:52:21;;;;;;;;;16.00;13.25;;;;;0.78;65.19;101402.31;5114875;27;45559;-68
2024/01/20 08:54:47;;;;;;;;;41.75;29.75;;;;;0.85;65.38;101397.66;5115534;27;45293;-68
2024/01/20 08:57:13;;;;;;;;;14.00;10.00;;;;;0.89;64.82;101399.72;5115628;27;45458;-68
2024/01/20 08:59:38;;;;;;;;;13.00;12.50;;;;;0.94;65.36;101395.84;5115587;27;45517;-68
2024/01/20 09:02:05;;;;;;;;;53.25;35.75;;;;;1.01;65.03;101394.66;5119478;27;45594;-68
2024/01/20 09:04:31;;;;;;;;;27.50;24.75;;;;;1.15;65.01;101409.56;5119312;27;45288;-68
2024/01/20 09:06:56;;;;;;;;;17.50;14.75;;;;;1.29;65.18;101408.09;5117366;27;45979;-68
2024/01/20 09:09:22;;;;;;;;;13.00;9.50;;;;;1.40;65.00;101404.72;5119468;27;45510;-68
2024/01/20 09:11:48;;;;;;;;;13.25;11.75;;;;;1.56;64.57;101410.31;5119304;27;45518;-68
2024/01/20 09:14:15;;;;;;;;;24.50;21.00;;;;;1.63;64.06;101410.81;5117703;27;45892;-69
2024/01/20 09:16:40;;;;;;;;;9.75;9.25;;;;;1.38;63.89;101363.41;5118922;27;45346;-68
2024/01/20 09:19:06;;;;;;;;;13.75;10.25;;;;;1.75;63.71;101423.00;5119060;27;45297;-68
2024/01/20 09:21:32;;;;;;;;;13.50;11.50;;;;;1.88;64.21;101418.81;5116666;27;45217;-68
2024/01/20 09:23:57;;;;;;;;;10.00;8.50;;;;;2.06;63.77;101409.94;5118094;27;45950;-69
2024/01/20 09:26:23;;;;;;;;;11.50;10.00;;;;;2.47;63.98;101401.03;5118576;27;45411;-68
2024/01/20 09:28:49;;;;;;;;;22.00;20.50;;;;;3.35;62.74;101393.81;5117419;27;45400;-69
2024/01/20 09:31:14;;;;;;;;;25.25;23.00;;;;;4.65;61.88;101384.69;5118469;27;45484;-68
2024/01/20 09:33:42;;;;;;;;;14.00;11.50;;;;;5.93;57.77;101344.56;5118052;27;45509;-68
2024/01/20 09:36:07;;;;;;;;;11.00;9.75;;;;;7.20;52.63;101332.97;5115683;27;45482;-68
2024/01/20 09:38:33;;;;;;;;;8.50;7.00;;;;;8.12;51.98;101365.72;5118137;27;45502;-68
2024/01/20 09:40:59;;;;;;;;;7.00;7.00;;;;;8.78;50.50;101378.69;5118260;27;45470;-68
2024/01/20 09:43:25;;;;;;;;;24.50;20.00;;;;;8.99;48.34;101334.53;5117278;27;45423;-68
2024/01/20 09:45:52;;;;;;;;;33.25;30.50;;;;;9.59;47.25;101371.31;5118362;27;45430;-67
2024/01/20 09:48:18;;;;;;;;;8.75;7.00;;;;;9.87;47.85;101368.28;5116741;27;45521;-70
2024/01/20 09:50:44;;;;;;;;;8.75;8.00;;;;;10.01;45.07;101367.19;5117096;27;45482;-69
2024/01/20 09:53:17;;;;;;;;;8.75;7.75;;;;;10.09;45.51;101360.59;5117499;27;46171;-69
2024/01/20 09:55:44;;;;;;;;;8.00;8.00;;;;;10.21;43.28;101369.81;5114932;27;45446;-68
2024/01/20 09:58:14;;;;;;;;;20.50;19.25;;;;;10.18;42.99;101335.72;5116774;27;45843;-68
2024/01/20 10:00:41;;;;;;;;;8.00;8.00;;;;;10.33;43.28;101354.72;5116702;27;45340;-69
2024/01/20 10:03:11;;;;;;;;;30.00;28.50;;;;;10.32;42.91;101358.13;5115153;27;45738;-67
2024/01/20 10:05:37;;;;;;;;;25.00;23.00;;;;;10.18;41.81;101365.31;5119826;27;45472;-68
2024/01/20 10:08:04;;;;;;;;;23.25;22.00;;;;;10.07;43.13;101370.09;5119081;27;45310;-68
2024/01/20 10:10:32;;;;;;;;;13.00;10.50;;;;;9.99;42.71;101367.94;5119668;27;45526;-70
2024/01/20 10:12:58;;;;;;;;;7.50;7.00;;;;;9.85;42.99;101376.03;5120114;27;45973;-70
2024/01/20 10:15:26;;;;;;;;;14.00;11.25;;;;;9.65;42.96;101377.72;5120266;27;45343;-67
2024/01/20 10:17:53;;;;;;;;;25.75;25.75;;;;;9.46;43.31;101386.38;5120377;27;45423;-68
2024/01/20 10:20:23;;;;;;;;;14.50;14.00;;;;;9.30;43.36;101376.94;5120513;27;45446;-70
2024/01/20 10:22:50;;;;;;;;;12.00;11.50;;;;;9.24;45.03;101392.28;5120141;27;46194;-67
2024/01/20 10:25:19;;;;;;;;;12.50;11.50;;;;;9.18;45.55;101394.59;5120116;27;45601;-67
2024/01/20 10:27:47;;;;;;;;;15.00;14.25;;;;;9.26;45.11;101389.75;5120133;27;45220;-68
2024/01/20 10:30:18;;;;;;;;;14.00;11.25;;;;;9.41;46.71;101389.59;5119899;27;45521;-70
2024/01/20 10:32:44;;;;;;;;;13.25;13.00;;;;;9.62;45.17;101381.91;5119593;27;46117;-67
2024/01/20 10:35:10;;;;;;;;;9.25;9.00;;;;;9.64;44.90;101369.81;5119990;27;45273;-67
2024/01/20 10:37:42;;;;;;;;;13.00;11.50;;;;;9.62;44.47;101366.25;5120158;27;45240;-69
2024/01/20 10:40:12;;;;;;;;;14.25;13.75;;;;;9.52;45.08;101359.69;5120061;27;45601;-68
2024/01/20 10:42:46;;;;;;;;;16.75;14.00;;;;;9.49;45.73;101360.47;5119370;27;46196;-67
2024/01/20 10:45:16;;;;;;;;;16.75;15.00;;;;;9.70;44.40;101364.88;5119634;27;45157;-67
2024/01/20 10:48:00;;;;;;;;;14.00;13.50;;;;;9.85;44.32;101357.78;5120025;27;45448;-67
2024/01/20 10:50:26;;;;;;;;;13.00;11.75;;;;;9.80;44.27;101316.63;5120289;27;45344;-68
2024/01/20 10:52:52;;;;;;;;;8.75;8.75;;;;;10.13;43.81;101359.91;5120122;27;46050;-68
2024/01/20 10:55:19;;;;;;;;;4.00;4.00;;;;;10.22;42.54;101348.97;5117882;27;46042;-70
2024/01/20 10:57:46;;;;;;;;;8.00;8.00;;;;;10.27;41.64;101352.69;5118641;27;45475;-68
2024/01/20 11:00:14;;;;;;;;;10.75;8.75;;;;;10.40;43.23;101350.66;5118883;27;45447;-67
2024/01/20 11:02:40;;;;;;;;;8.00;8.00;;;;;10.40;42.20;101348.91;5118566;27;46104;-67
2024/01/20 11:05:22;;;;;;;;;7.25;5.50;;;;;10.35;43.54;101340.00;5118856;27;45762;-67
2024/01/20 11:07:56;;;;;;;;;5.00;5.00;;;;;10.37;42.12;101335.75;5117443;27;45439;-68
2024/01/20 11:10:25;;;;;;;;;4.00;4.00;;;;;10.32;42.46;101332.03;5119874;27;45469;-67
2024/01/20 11:13:04;;;;;;;;;5.25;5.25;;;;;10.21;41.41;101330.66;5119101;27;45482;-67
2024/01/20 11:15:30;;;;;;;;;4.00;4.00;;;;;10.07;40.86;101314.38;5119183;27;45477;-67